Time;durP1;ratioP1;P1;durP2;ratioP2;P2;SDS_P1;SDS_P2;PMS_P1;PMS_P2;Temp;Humidity;BMP_temperature;BMP_pressure;BME280_temperature;BME280_humidity;BME280_pressure;Samples;Min_cycle;Max_cycle;Signal;HPM_P1;HPM_P2
2022/08/21 00:02:23;;;;;;;8.88;3.88;;;16.90;99.90;;;;;;5015597;28;20045;-79
2022/08/21 00:04:50;;;;;;;7.30;4.35;;;16.90;99.90;;;;;;5032543;28;20416;-80
2022/08/21 00:07:16;;;;;;;5.38;3.33;;;16.90;99.90;;;;;;5031839;28;20103;-79
2022/08/21 00:09:42;;;;;;;;;;;16.90;99.90;;;;;;5032915;28;20045;-79
2022/08/21 00:12:07;;;;;;;5.95;3.10;;;16.80;99.90;;;;;;5015597;28;20588;-80
2022/08/21 00:14:34;;;;;;;9.23;3.60;;;16.80;99.90;;;;;;5032102;28;20404;-80
2022/08/21 00:17:00;;;;;;;8.73;3.42;;;16.80;99.90;;;;;;5032272;28;20088;-80
2022/08/21 00:19:26;;;;;;;7.70;3.95;;;16.80;99.90;;;;;;5015636;28;20037;-80
2022/08/21 00:21:53;;;;;;;5.43;3.67;;;16.70;99.90;;;;;;5032102;28;20076;-79
2022/08/21 00:24:21;;;;;;;7.93;3.63;;;16.70;99.90;;;;;;5031628;28;20038;-79
2022/08/21 00:26:47;;;;;;;7.50;3.75;;;16.70;99.90;;;;;;5032174;28;20094;-80
2022/08/21 00:29:13;;;;;;;6.72;3.95;;;16.60;99.90;;;;;;5032096;28;20469;-80
2022/08/21 00:31:40;;;;;;;6.78;3.67;;;16.60;99.90;;;;;;5032079;28;20416;-79
2022/08/21 00:34:07;;;;;;;7.97;3.95;;;16.50;99.90;;;;;;5032126;28;20615;-79
2022/08/21 00:36:33;;;;;;;7.53;3.97;;;16.50;99.90;;;;;;5031900;28;20179;-80
2022/08/21 00:38:59;;;;;;;7.65;3.90;;;16.50;99.90;;;;;;5031106;28;20095;-80
2022/08/21 00:41:25;;;;;;;8.85;4.97;;;16.40;99.90;;;;;;5015164;28;20485;-80
2022/08/21 00:43:51;;;;;;;9.27;3.80;;;16.40;99.90;;;;;;5031900;28;20496;-79
2022/08/21 00:46:17;;;;;;;;;;;16.30;99.90;;;;;;5032334;28;20052;-80
2022/08/21 00:48:42;;;;;;;8.02;4.13;;;16.30;99.90;;;;;;5031846;28;19921;-80
2022/08/21 00:51:22;;;;;;;11.05;4.72;;;16.20;99.90;;;;;;5031773;28;20052;-79
2022/08/21 00:53:52;;;;;;;7.63;3.92;;;16.20;99.90;;;;;;5031516;28;20045;-79
2022/08/21 00:56:20;;;;;;;7.88;4.13;;;16.30;99.90;;;;;;4999055;28;20057;-80
2022/08/21 00:58:47;;;;;;;6.22;3.65;;;16.30;99.90;;;;;;5031746;28;20470;-80
2022/08/21 01:01:13;;;;;;;8.60;3.75;;;16.30;99.90;;;;;;5014456;28;20057;-79
2022/08/21 01:03:39;;;;;;;;;;;16.30;99.90;;;;;;5032012;28;20053;-80
2022/08/21 01:06:06;;;;;;;8.10;3.58;;;16.20;99.90;;;;;;5014684;28;19921;-80
2022/08/21 01:08:33;;;;;;;7.30;3.70;;;16.20;99.90;;;;;;5031259;28;20037;-79
2022/08/21 01:11:00;;;;;;;7.78;3.85;;;16.20;99.90;;;;;;5014586;28;20037;-79
2022/08/21 01:13:28;;;;;;;5.38;3.58;;;16.20;99.90;;;;;;5015067;28;20048;-79
2022/08/21 01:15:59;;;;;;;7.32;3.80;;;16.20;99.90;;;;;;5014892;28;20117;-80
2022/08/21 01:18:25;;;;;;;7.80;4.07;;;16.10;99.90;;;;;;5031445;28;20508;-80
2022/08/21 01:21:02;;;;;;;;;;;16.10;99.90;;;;;;5031109;28;20115;-80
2022/08/21 01:23:28;;;;;;;9.55;4.38;;;16.10;99.90;;;;;;5031187;28;19916;-79
2022/08/21 01:25:53;;;;;;;6.50;3.85;;;16.10;99.90;;;;;;5031392;28;20053;-80
2022/08/21 01:28:20;;;;;;;10.43;4.05;;;16.10;99.90;;;;;;5014861;28;20046;-79
2022/08/21 01:30:47;;;;;;;11.23;3.90;;;16.10;99.90;;;;;;5014735;28;20042;-80
2022/08/21 01:33:13;;;;;;;7.95;4.03;;;16.10;99.90;;;;;;5014293;28;20088;-80
2022/08/21 01:35:38;;;;;;;7.35;3.60;;;16.10;99.90;;;;;;5031409;28;20073;-79
2022/08/21 01:38:04;;;;;;;9.85;3.88;;;16.10;99.90;;;;;;5030522;28;20421;-79
2022/08/21 01:40:30;;;;;;;9.35;4.65;;;16.20;99.90;;;;;;5030952;28;20049;-79
2022/08/21 01:42:56;;;;;;;7.50;4.28;;;16.10;99.90;;;;;;5030872;28;20080;-79
2022/08/21 01:45:21;;;;;;;9.20;4.47;;;16.00;99.90;;;;;;5014576;28;20103;-79
2022/08/21 01:47:47;;;;;;;7.80;4.15;;;16.00;99.90;;;;;;5030874;28;20496;-80
2022/08/21 01:50:15;;;;;;;6.72;4.07;;;15.90;99.90;;;;;;5030485;28;20045;-79
2022/08/21 01:52:41;;;;;;;7.93;4.18;;;15.80;99.90;;;;;;5030817;28;20117;-79
2022/08/21 01:55:08;;;;;;;9.77;4.30;;;15.80;99.90;;;;;;5030686;28;20191;-79
2022/08/21 01:57:34;;;;;;;7.32;4.40;;;15.70;99.90;;;;;;5031085;28;20500;-80
2022/08/21 02:00:00;;;;;;;11.32;4.57;;;15.70;99.90;;;;;;5030527;28;20049;-79
2022/08/21 02:02:26;;;;;;;8.60;4.22;;;15.70;99.90;;;;;;5030870;28;20521;-79
2022/08/21 02:04:52;;;;;;;9.32;5.00;;;15.60;99.90;;;;;;5031120;28;20041;-80
2022/08/21 02:07:18;;;;;;;12.52;5.00;;;15.70;99.90;;;;;;5030430;28;20041;-79
2022/08/21 02:09:44;;;;;;;7.25;5.10;;;15.60;99.90;;;;;;5033719;28;20044;-79
2022/08/21 02:12:11;;;;;;;10.13;5.18;;;15.60;99.90;;;;;;5034554;28;20049;-80
2022/08/21 02:14:36;;;;;;;8.75;5.00;;;15.60;99.90;;;;;;5034354;28;20044;-79
2022/08/21 02:17:03;;;;;;;10.55;5.30;;;15.60;99.90;;;;;;5034915;28;20033;-79
2022/08/21 02:19:29;;;;;;;;;;;15.50;99.90;;;;;;5034633;28;20041;-79
2022/08/21 02:21:54;;;;;;;10.35;5.70;;;15.60;99.90;;;;;;5017918;28;19923;-79
2022/08/21 02:24:20;;;;;;;13.90;5.50;;;15.60;99.90;;;;;;5034435;28;20053;-79
2022/08/21 02:26:46;;;;;;;9.75;6.03;;;15.50;99.90;;;;;;5034597;28;20155;-79
2022/08/21 02:29:12;;;;;;;7.90;5.50;;;15.50;99.90;;;;;;5034305;28;20045;-79
2022/08/21 02:31:38;;;;;;;9.68;5.50;;;15.50;99.90;;;;;;5033841;28;20077;-79
2022/08/21 02:34:04;;;;;;;10.13;5.43;;;15.50;99.90;;;;;;5017647;28;20068;-79
2022/08/21 02:36:30;;;;;;;11.10;6.13;;;15.50;99.90;;;;;;5034298;28;20288;-79
2022/08/21 02:38:55;;;;;;;11.38;5.10;;;15.50;99.90;;;;;;5034630;28;20050;-79
2022/08/21 02:41:23;;;;;;;7.20;5.38;;;15.40;99.90;;;;;;5018022;28;20049;-79
2022/08/21 02:43:49;;;;;;;10.45;5.60;;;15.30;99.90;;;;;;5033776;28;20111;-79
2022/08/21 02:46:17;;;;;;;9.88;6.05;;;15.30;99.90;;;;;;5033534;28;20046;-79
2022/08/21 02:48:43;;;;;;;11.60;6.30;;;15.30;99.90;;;;;;5033874;28;20175;-79
2022/08/21 02:51:12;;;;;;;9.25;6.03;;;15.20;99.90;;;;;;5033872;28;20045;-80
2022/08/21 02:53:39;;;;;;;10.20;5.75;;;15.20;99.90;;;;;;5033969;28;20045;-79
2022/08/21 02:56:08;;;;;;;11.85;6.15;;;15.20;99.90;;;;;;5033305;28;20041;-79
2022/08/21 02:58:38;;;;;;;11.40;6.07;;;15.20;99.90;;;;;;5034244;28;20511;-79
2022/08/21 03:01:04;;;;;;;11.93;6.28;;;15.10;99.90;;;;;;5033883;28;20048;-79
2022/08/21 03:03:30;;;;;;;11.23;6.55;;;15.10;99.90;;;;;;5033294;28;20049;-78
2022/08/21 03:05:56;;;;;;;13.00;6.90;;;15.10;99.90;;;;;;5033809;28;20128;-79
2022/08/21 03:08:23;;;;;;;10.95;6.20;;;15.10;99.90;;;;;;5033570;28;20042;-79
2022/08/21 03:10:50;;;;;;;;;;;15.10;99.90;;;;;;5017209;28;20144;-79
2022/08/21 03:13:17;;;;;;;11.65;6.65;;;15.00;99.90;;;;;;5017087;28;19975;-79
2022/08/21 03:15:44;;;;;;;12.88;6.50;;;15.00;99.90;;;;;;5033827;28;20041;-79
2022/08/21 03:18:10;;;;;;;;;;;15.00;99.90;;;;;;5033526;28;20033;-79
2022/08/21 03:20:38;;;;;;;9.00;5.85;;;14.90;99.90;;;;;;5031988;28;19924;-79
2022/08/21 03:23:05;;;;;;;11.23;6.47;;;14.90;99.90;;;;;;5032947;28;20050;-79
2022/08/21 03:25:34;;;;;;;12.02;6.50;;;14.80;99.90;;;;;;5016440;28;20071;-80
2022/08/21 03:28:01;;;;;;;9.65;6.60;;;14.80;99.90;;;;;;5032988;28;20045;-79
2022/08/21 03:30:27;;;;;;;11.07;6.25;;;14.70;99.90;;;;;;5033227;28;20041;-79
2022/08/21 03:32:53;;;;;;;9.85;6.70;;;14.70;99.90;;;;;;5033110;28;20048;-79
2022/08/21 03:35:20;;;;;;;9.73;6.38;;;14.70;99.90;;;;;;5016519;28;20037;-79
2022/08/21 03:37:46;;;;;;;15.45;7.00;;;14.60;99.90;;;;;;5016317;28;20114;-79
2022/08/21 03:40:15;;;;;;;10.70;6.95;;;14.60;99.90;;;;;;5016422;28;20111;-79
2022/08/21 03:42:41;;;;;;;11.50;7.15;;;14.60;99.90;;;;;;5032809;28;20421;-79
2022/08/21 03:45:08;;;;;;;11.40;7.53;;;14.60;99.90;;;;;;5032787;28;20056;-79
2022/08/21 03:47:34;;;;;;;;;;;14.60;99.90;;;;;;5017067;28;20099;-79
2022/08/21 03:50:01;;;;;;;9.63;6.67;;;14.60;99.90;;;;;;5032802;28;19928;-79
2022/08/21 03:52:26;;;;;;;8.85;6.78;;;14.50;99.90;;;;;;5033154;28;20485;-79
2022/08/21 03:54:52;;;;;;;12.50;7.00;;;14.60;99.90;;;;;;5016197;28;20049;-79
2022/08/21 03:57:18;;;;;;;10.20;7.27;;;14.50;99.90;;;;;;5032118;28;20648;-79
2022/08/21 03:59:43;;;;;;;10.40;7.22;;;14.60;99.90;;;;;;5032526;28;20310;-79
2022/08/21 04:02:10;;;;;;;11.82;7.85;;;14.60;99.90;;;;;;5032360;28;20041;-79
2022/08/21 04:04:36;;;;;;;12.45;7.55;;;14.60;99.90;;;;;;5032468;28;20052;-79
2022/08/21 04:07:03;;;;;;;14.73;7.53;;;14.50;99.90;;;;;;5032245;28;20092;-79
2022/08/21 04:09:30;;;;;;;11.45;6.60;;;14.50;99.90;;;;;;5032321;28;20041;-79
2022/08/21 04:11:56;;;;;;;9.73;7.15;;;14.40;99.90;;;;;;5016276;28;20048;-79
2022/08/21 04:14:22;;;;;;;11.38;7.25;;;14.40;99.90;;;;;;5032028;28;20560;-79
2022/08/21 04:16:48;;;;;;;13.65;7.15;;;14.40;99.90;;;;;;5032613;28;20145;-79
2022/08/21 04:19:15;;;;;;;10.23;6.97;;;14.40;99.90;;;;;;5032452;28;20037;-79
2022/08/21 04:21:41;;;;;;;13.10;7.15;;;14.40;99.90;;;;;;5032183;28;20088;-79
2022/08/21 04:24:09;;;;;;;10.25;6.85;;;14.40;99.90;;;;;;5015730;28;20481;-79
2022/08/21 04:26:35;;;;;;;11.38;6.65;;;14.40;99.90;;;;;;5032459;28;20500;-79
2022/08/21 04:29:04;;;;;;;12.60;7.28;;;14.50;99.90;;;;;;5031961;28;20045;-79
2022/08/21 04:31:30;;;;;;;11.98;7.20;;;14.50;99.90;;;;;;5031520;28;20073;-79
2022/08/21 04:33:56;;;;;;;12.85;7.13;;;14.50;99.90;;;;;;5031793;28;20590;-79
2022/08/21 04:36:22;;;;;;;12.38;7.65;;;14.50;99.90;;;;;;5015239;28;20084;-79
2022/08/21 04:38:48;;;;;;;12.00;7.75;;;14.50;99.90;;;;;;5031963;28;20080;-79
2022/08/21 04:41:14;;;;;;;13.63;7.15;;;14.50;99.90;;;;;;5032088;28;20136;-79
2022/08/21 04:43:40;;;;;;;14.00;7.13;;;14.50;99.90;;;;;;4998843;28;20068;-79
2022/08/21 04:46:05;;;;;;;9.93;7.13;;;14.50;99.90;;;;;;5015140;28;20068;-79
2022/08/21 04:48:32;;;;;;;14.82;7.18;;;14.50;99.90;;;;;;5014903;28;20401;-79
2022/08/21 04:51:29;;;;;;;15.23;6.80;;;14.50;99.90;;;;;;5015134;28;20073;-79
2022/08/21 04:54:05;;;;;;;13.45;6.68;;;14.50;99.90;;;;;;5030893;28;20107;-79
2022/08/21 04:56:36;;;;;;;11.83;6.80;;;14.50;99.90;;;;;;5031747;28;20085;-79
2022/08/21 04:59:10;;;;;;;11.10;6.20;;;14.50;99.90;;;;;;5031428;28;20076;-79
2022/08/21 05:01:39;;;;;;;11.25;6.82;;;14.50;99.90;;;;;;5015333;28;20091;-79
2022/08/21 05:04:07;;;;;;;13.50;6.75;;;14.50;99.90;;;;;;5014566;28;20045;-78
2022/08/21 05:06:36;;;;;;;9.35;6.45;;;14.50;99.90;;;;;;5031250;28;20046;-79
2022/08/21 05:09:02;;;;;;;10.60;6.65;;;14.60;99.90;;;;;;5031784;28;20527;-79
2022/08/21 05:11:30;;;;;;;12.40;6.35;;;14.60;99.90;;;;;;5031448;28;20049;-79
2022/08/21 05:13:56;;;;;;;11.63;7.40;;;14.60;99.90;;;;;;5015648;28;20073;-79
2022/08/21 05:16:21;;;;;;;12.27;6.57;;;14.60;99.90;;;;;;5015215;28;20037;-79
2022/08/21 05:18:47;;;;;;;8.60;6.20;;;14.60;99.90;;;;;;5015121;28;20280;-79
2022/08/21 05:21:13;;;;;;;11.23;6.50;;;14.60;99.90;;;;;;5030715;28;20033;-79
2022/08/21 05:23:38;;;;;;;9.87;6.60;;;14.60;99.90;;;;;;5031276;28;20429;-79
2022/08/21 05:26:04;;;;;;;14.68;6.95;;;14.60;99.90;;;;;;5014755;28;20508;-79
2022/08/21 05:28:31;;;;;;;13.77;6.95;;;14.70;99.90;;;;;;5031301;28;20615;-79
2022/08/21 05:30:57;;;;;;;10.65;6.63;;;14.70;99.90;;;;;;5031057;28;20049;-79
2022/08/21 05:33:23;;;;;;;11.32;6.28;;;14.80;99.90;;;;;;5031080;28;20492;-79
2022/08/21 05:35:55;;;;;;;11.85;6.47;;;14.80;99.90;;;;;;5014874;28;20444;-79
2022/08/21 05:38:22;;;;;;;9.80;6.43;;;14.80;99.90;;;;;;5030954;28;20057;-79
2022/08/21 05:40:47;;;;;;;15.45;6.47;;;14.90;99.90;;;;;;5014264;28;20046;-79
2022/08/21 05:43:14;;;;;;;10.30;5.93;;;15.00;99.90;;;;;;5031882;28;20034;-79
2022/08/21 05:45:40;;;;;;;13.32;6.30;;;15.10;99.90;;;;;;5018805;28;20308;-79
2022/08/21 05:48:17;;;;;;;10.15;6.20;;;15.20;99.90;;;;;;5035085;28;20037;-79
2022/08/21 05:50:44;;;;;;;10.77;6.18;;;15.30;99.90;;;;;;5018692;28;20091;-79
2022/08/21 05:53:11;;;;;;;12.93;6.40;;;15.40;99.90;;;;;;5035211;28;20045;-79
2022/08/21 05:55:37;;;;;;;;;;;15.60;99.90;;;;;;5035389;28;20137;-79
2022/08/21 05:58:03;;;;;;;13.80;5.80;;;15.70;99.90;;;;;;5034511;28;19921;-79
2022/08/21 06:00:29;;;;;;;12.60;6.55;;;15.80;99.90;;;;;;5034806;28;20455;-79
2022/08/21 06:02:55;;;;;;;11.55;6.15;;;15.90;99.90;;;;;;5035505;28;20052;-79
2022/08/21 06:05:21;;;;;;;14.00;6.80;;;16.00;99.90;;;;;;5034549;28;20050;-79
2022/08/21 06:07:46;;;;;;;11.30;6.40;;;16.20;99.90;;;;;;5018141;28;20084;-79
2022/08/21 06:10:12;;;;;;;11.35;5.65;;;16.30;99.90;;;;;;5034343;28;20038;-79
2022/08/21 06:12:38;;;;;;;10.75;6.18;;;16.50;99.90;;;;;;5034763;28;20049;-79
2022/08/21 06:15:04;;;;;;;11.75;5.90;;;16.60;99.90;;;;;;4985599;28;20502;-79
2022/08/21 06:17:30;;;;;;;8.95;5.25;;;16.70;99.90;;;;;;5018114;28;20140;-79
2022/08/21 06:19:56;;;;;;;11.80;5.55;;;17.00;99.90;;;;;;5034508;28;20120;-79
2022/08/21 06:22:22;;;;;;;11.45;5.28;;;17.10;99.90;;;;;;5017774;28;20152;-79
2022/08/21 06:24:47;;;;;;;12.52;5.32;;;17.30;99.90;;;;;;5018034;28;20124;-79
2022/08/21 06:27:14;;;;;;;9.63;5.03;;;17.40;99.90;;;;;;5018137;28;20087;-79
2022/08/21 06:29:40;;;;;;;9.32;5.07;;;17.50;99.90;;;;;;5017644;28;20049;-79
2022/08/21 06:32:07;;;;;;;8.30;5.03;;;17.60;99.90;;;;;;5034666;28;20053;-79
2022/08/21 06:34:37;;;;;;;9.82;4.95;;;17.80;99.90;;;;;;5034402;28;20034;-79
2022/08/21 06:37:04;;;;;;;10.05;4.60;;;17.90;99.90;;;;;;5034175;28;20484;-79
2022/08/21 06:39:29;;;;;;;11.45;5.03;;;18.30;99.90;;;;;;5034218;28;20505;-79
2022/08/21 06:41:55;;;;;;;7.75;4.30;;;18.90;99.90;;;;;;5034013;28;20088;-80
2022/08/21 06:44:21;;;;;;;9.55;4.05;;;19.40;99.90;;;;;;5033839;28;20049;-79
2022/08/21 06:46:47;;;;;;;7.90;3.50;;;19.90;99.90;;;;;;5017205;28;20068;-79
2022/08/21 06:49:12;;;;;;;7.40;3.63;;;20.40;99.90;;;;;;5034103;28;20481;-80
2022/08/21 06:51:39;;;;;;;7.38;3.42;;;20.70;99.90;;;;;;5017538;28;20048;-79
2022/08/21 06:54:04;;;;;;;7.55;2.67;;;20.90;99.90;;;;;;5033322;28;20060;-80
2022/08/21 06:56:30;;;;;;;8.75;2.78;;;21.20;99.90;;;;;;5033989;28;20409;-80
2022/08/21 06:58:56;;;;;;;6.65;2.78;;;21.50;99.90;;;;;;5017223;28;20045;-80
2022/08/21 07:01:24;;;;;;;8.30;2.40;;;21.70;99.90;;;;;;5017565;28;20037;-79
2022/08/21 07:03:50;;;;;;;6.25;2.13;;;22.00;99.90;;;;;;5033534;28;20500;-80
2022/08/21 07:06:16;;;;;;;4.57;2.10;;;22.20;99.90;;;;;;5033702;28;20124;-80
2022/08/21 07:08:42;;;;;;;6.05;2.30;;;22.20;99.90;;;;;;5033403;28;20052;-80
2022/08/21 07:11:17;;;;;;;8.27;1.80;;;22.50;99.90;;;;;;5033729;28;20049;-80
2022/08/21 07:13:43;;;;;;;7.18;1.88;;;22.70;99.90;;;;;;5017581;28;20045;-80
2022/08/21 07:16:09;;;;;;;5.32;1.70;;;22.90;99.90;;;;;;5033627;28;20095;-80
2022/08/21 07:18:34;;;;;;;6.88;1.83;;;23.10;99.90;;;;;;5033254;28;20038;-80
2022/08/21 07:21:05;;;;;;;4.95;1.70;;;23.20;99.90;;;;;;5016603;28;20114;-80
2022/08/21 07:23:37;;;;;;;5.88;1.90;;;23.20;99.90;;;;;;5033423;28;20029;-80
2022/08/21 07:26:03;;;;;;;7.78;1.95;;;23.40;99.90;;;;;;5033290;28;20045;-80
2022/08/21 07:28:30;;;;;;;6.03;1.63;;;23.40;99.90;;;;;;5033046;28;20037;-80
2022/08/21 07:30:58;;;;;;;6.47;1.92;;;23.50;99.90;;;;;;5016812;28;20497;-80
2022/08/21 07:33:26;;;;;;;6.00;1.70;;;23.70;99.90;;;;;;5033269;28;20044;-80
2022/08/21 07:35:51;;;;;;;6.57;1.75;;;23.90;99.90;;;;;;5016432;28;20045;-80
2022/08/21 07:38:18;;;;;;;;;;;23.90;99.90;;;;;;5000593;28;20084;-80
2022/08/21 07:40:45;;;;;;;9.07;1.90;;;24.00;99.90;;;;;;5032994;28;19975;-80
2022/08/21 07:43:11;;;;;;;5.63;1.60;;;24.10;99.90;;;;;;5016282;28;20037;-80
2022/08/21 07:45:37;;;;;;;;;;;23.90;99.90;;;;;;5033045;28;20136;-80
2022/08/21 07:48:03;;;;;;;6.63;1.58;;;23.90;99.90;;;;;;5032659;28;19917;-80
2022/08/21 07:50:29;;;;;;;4.90;1.60;;;24.00;99.90;;;;;;4999686;28;20049;-80
2022/08/21 07:52:55;;;;;;;;;;;24.20;99.90;;;;;;5033127;28;20504;-80
2022/08/21 07:55:22;;;;;;;7.00;1.45;;;24.40;99.90;;;;;;5032503;28;19920;-80
2022/08/21 07:57:48;;;;;;;7.00;1.63;;;24.40;99.90;;;;;;5032350;28;20406;-81
2022/08/21 08:00:19;;;;;;;3.83;1.10;;;24.50;99.90;;;;;;5015916;28;20045;-81
2022/08/21 08:02:49;;;;;;;9.38;1.23;;;24.50;99.90;;;;;;5016422;28;20481;-80
2022/08/21 08:05:16;;;;;;;7.03;1.70;;;24.70;99.90;;;;;;5032660;28;20489;-80
2022/08/21 08:07:42;;;;;;;7.10;1.77;;;25.00;99.90;;;;;;5032088;28;20049;-81
2022/08/21 08:10:08;;;;;;;;;;;24.90;99.90;;;;;;5032724;28;20040;-81
2022/08/21 08:12:36;;;;;;;8.95;1.50;;;25.10;99.90;;;;;;5032558;28;20383;-81
2022/08/21 08:15:06;;;;;;;4.40;1.40;;;25.20;99.90;;;;;;5031682;28;20045;-80
2022/08/21 08:17:32;;;;;;;6.60;1.55;;;25.20;99.90;;;;;;5031969;28;20094;-81
2022/08/21 08:20:00;;;;;;;;;;;25.20;99.90;;;;;;5015958;28;20049;-81
2022/08/21 08:22:26;;;;;;;7.38;1.40;;;25.30;99.90;;;;;;5031764;28;20257;-81
2022/08/21 08:24:53;;;;;;;5.93;1.35;;;25.60;99.90;;;;;;5015135;28;20131;-81
2022/08/21 08:27:19;;;;;;;6.60;1.55;;;25.80;99.90;;;;;;5031601;28;20098;-81
2022/08/21 08:29:45;;;;;;;10.25;1.75;;;25.90;99.90;;;;;;5031264;28;20076;-81
2022/08/21 08:32:11;;;;;;;;;;;25.90;99.90;;;;;;5031709;28;20057;-81
2022/08/21 08:34:38;;;;;;;5.45;1.48;;;25.90;99.90;;;;;;5031229;28;20357;-81
2022/08/21 08:37:06;;;;;;;6.13;1.40;;;26.00;99.90;;;;;;5014866;28;20049;-81
2022/08/21 08:39:32;;;;;;;6.03;1.67;;;26.30;99.60;;;;;;5031244;28;20128;-81
2022/08/21 08:42:16;;;;;;;6.93;1.52;;;26.30;99.90;;;;;;5015293;28;20070;-81
2022/08/21 08:44:46;;;;;;;6.72;1.48;;;26.60;99.70;;;;;;5031637;28;20045;-81
2022/08/21 08:47:15;;;;;;;6.22;1.92;;;26.60;99.50;;;;;;5015007;28;20049;-81
2022/08/21 08:49:53;;;;;;;7.95;1.90;;;26.80;99.60;;;;;;5031089;28;20068;-81
2022/08/21 08:52:51;;;;;;;8.52;2.47;;;26.80;99.40;;;;;;5031415;28;20041;-82
2022/08/21 08:55:23;;;;;;;9.73;2.15;;;27.00;99.30;;;;;;5023513;28;20053;-81
2022/08/21 08:57:50;;;;;;;6.35;1.58;;;26.90;99.40;;;;;;5031662;28;20048;-81
2022/08/21 09:00:20;;;;;;;10.63;2.00;;;27.10;99.70;;;;;;5031223;28;20124;-81
2022/08/21 09:02:46;;;;;;;6.00;1.90;;;27.40;99.60;;;;;;5031429;28;20516;-81
2022/08/21 09:05:42;;;;;;;5.88;1.83;;;27.60;99.60;;;;;;5031171;28;20060;-81
2022/08/21 09:08:27;;;;;;;9.95;2.30;;;28.00;98.80;;;;;;5030099;28;20062;-81
2022/08/21 09:11:05;;;;;;;8.48;2.10;;;27.80;98.40;;;;;;5031345;28;20042;-81
2022/08/21 09:13:49;;;;;;;9.38;1.83;;;27.40;99.40;;;;;;5014631;28;20041;-81
2022/08/21 09:16:47;;;;;;;6.70;1.85;;;27.40;99.40;;;;;;5030940;28;20049;-81
2022/08/21 09:19:30;;;;;;;8.38;1.80;;;27.30;99.10;;;;;;5014521;28;20068;-81
2022/08/21 09:22:27;;;;;;;8.25;1.77;;;27.60;99.60;;;;;;5031138;28;20073;-81
2022/08/21 09:25:10;;;;;;;6.68;1.65;;;27.80;98.90;;;;;;5021769;28;20103;-81
2022/08/21 09:27:36;;;;;;;6.40;1.50;;;28.30;99.00;;;;;;5014493;28;20038;-82
2022/08/21 09:30:05;;;;;;;6.00;1.63;;;28.60;98.80;;;;;;5030792;28;20048;-81
2022/08/21 09:32:34;;;;;;;5.03;1.58;;;28.50;99.00;;;;;;5014589;28;20401;-81
2022/08/21 09:35:03;;;;;;;8.50;1.77;;;28.50;99.20;;;;;;5031175;28;20080;-81
2022/08/21 09:37:31;;;;;;;7.60;1.60;;;28.10;98.80;;;;;;5031007;28;20489;-81
2022/08/21 09:39:58;;;;;;;8.10;1.50;;;27.70;98.90;;;;;;5030985;28;20041;-82
2022/08/21 09:42:31;;;;;;;7.03;1.45;;;27.60;99.00;;;;;;5014281;28;20186;-81
2022/08/21 09:45:10;;;;;;;7.93;1.50;;;27.60;98.70;;;;;;5030506;28;20045;-81
2022/08/21 09:47:36;;;;;;;7.15;1.60;;;27.60;98.50;;;;;;5014530;28;20045;-81
2022/08/21 09:50:12;;;;;;;6.30;1.70;;;28.00;98.90;;;;;;5030816;28;20091;-82
2022/08/21 09:52:45;;;;;;;6.82;1.50;;;28.50;98.60;;;;;;5031021;28;20420;-82
2022/08/21 09:57:38;;;;;;;7.60;1.60;;;29.10;97.70;;;;;;5030333;28;20053;-82
2022/08/21 09:58:06;;;;;;;5.45;1.42;;;29.30;97.30;;;;;;5031093;28;20516;-82
2022/08/21 10:00:34;;;;;;;5.63;1.20;;;29.40;97.20;;;;;;5014548;28;20429;-82
2022/08/21 10:03:11;;;;;;;6.18;1.70;;;29.80;97.50;;;;;;5030629;28;20045;-82
2022/08/21 10:05:39;;;;;;;5.65;1.48;;;29.80;96.10;;;;;;5014285;28;20095;-82
2022/08/21 10:08:05;;;;;;;8.18;1.70;;;30.10;96.80;;;;;;5030908;28;20041;-82
2022/08/21 10:10:36;;;;;;;9.27;1.60;;;30.40;96.50;;;;;;5030532;28;20396;-82
2022/08/21 10:13:10;;;;;;;6.32;1.52;;;30.30;96.80;;;;;;5030614;28;20049;-82
2022/08/21 10:15:45;;;;;;;6.93;1.35;;;30.40;96.40;;;;;;5030466;28;20500;-82
2022/08/21 10:18:16;;;;;;;6.65;1.40;;;30.00;96.40;;;;;;5030244;28;20172;-82
2022/08/21 10:20:56;;;;;;;4.32;1.10;;;29.60;96.50;;;;;;5030717;28;20037;-82
2022/08/21 10:23:45;;;;;;;9.07;1.45;;;29.50;96.10;;;;;;5030487;28;20045;-82
2022/08/21 10:26:13;;;;;;;4.45;1.40;;;29.60;95.70;;;;;;5030410;28;20052;-82
2022/08/21 10:29:03;;;;;;;7.47;1.67;;;30.10;95.90;;;;;;5030427;28;20041;-82
2022/08/21 10:31:55;;;;;;;4.68;1.42;;;30.40;95.10;;;;;;5034324;28;20045;-82
2022/08/21 10:34:52;;;;;;;7.10;1.38;;;30.50;94.50;;;;;;5033897;28;20046;-82
2022/08/21 10:37:46;;;;;;;4.72;1.63;;;29.70;94.80;;;;;;5034267;28;20496;-82
2022/08/21 10:40:18;;;;;;;3.85;1.42;;;28.90;96.00;;;;;;5033800;28;20095;-81
2022/08/21 10:43:03;;;;;;;4.25;1.13;;;28.30;96.10;;;;;;5034102;28;20049;-81
2022/08/21 10:45:31;;;;;;;5.50;1.50;;;27.90;96.90;;;;;;5017626;28;20045;-81
2022/08/21 10:48:03;;;;;;;7.38;1.42;;;27.40;97.00;;;;;;5033972;28;20043;-81
2022/08/21 10:50:35;;;;;;;7.72;1.83;;;27.00;97.80;;;;;;5033947;28;20405;-81
2022/08/21 10:53:33;;;;;;;4.55;1.65;;;26.80;98.90;;;;;;5033981;28;20087;-81
2022/08/21 10:56:01;;;;;;;6.05;1.60;;;26.60;99.30;;;;;;5011077;28;20052;-81
2022/08/21 10:58:50;;;;;;;6.13;1.42;;;26.30;99.90;;;;;;5033175;28;20041;-81
2022/08/21 11:01:27;;;;;;;8.05;1.92;;;26.30;99.90;;;;;;5017034;28;20081;-81
2022/08/21 11:04:08;;;;;;;6.20;1.42;;;26.30;99.90;;;;;;5033855;28;20045;-81
2022/08/21 11:06:39;;;;;;;7.15;1.45;;;26.10;99.80;;;;;;5033760;28;20436;-81
2022/08/21 11:09:20;;;;;;;4.82;1.35;;;26.00;99.90;;;;;;5016815;28;20049;-81
2022/08/21 11:11:57;;;;;;;5.28;1.60;;;25.90;99.90;;;;;;5033467;28;20116;-81
2022/08/21 11:14:49;;;;;;;6.68;1.40;;;25.80;99.90;;;;;;5032745;28;20049;-81
2022/08/21 11:17:20;;;;;;;8.25;1.50;;;25.80;99.90;;;;;;5033192;28;20042;-81
2022/08/21 11:19:45;;;;;;;6.50;1.77;;;25.70;99.90;;;;;;5033164;28;20045;-81
2022/08/21 11:22:18;;;;;;;6.00;1.48;;;25.70;99.90;;;;;;5033131;28;20045;-81
2022/08/21 11:25:02;;;;;;;5.72;1.45;;;25.60;99.90;;;;;;5033397;28;20383;-81
2022/08/21 11:27:44;;;;;;;5.47;1.65;;;25.60;99.90;;;;;;5033407;28;20529;-81
2022/08/21 11:30:12;;;;;;;7.65;2.00;;;25.60;99.90;;;;;;5032670;28;20041;-81
2022/08/21 11:32:55;;;;;;;5.72;1.70;;;25.70;99.90;;;;;;5033175;28;20081;-81
2022/08/21 11:35:30;;;;;;;7.00;1.73;;;25.70;99.90;;;;;;5032965;28;20044;-81
2022/08/21 11:38:14;;;;;;;5.60;1.98;;;25.70;99.90;;;;;;5032886;28;20135;-81
2022/08/21 11:41:03;;;;;;;5.75;1.50;;;25.70;99.90;;;;;;5031992;28;20046;-81
2022/08/21 11:43:38;;;;;;;6.00;1.45;;;26.20;99.90;;;;;;5033149;28;20053;-81
2022/08/21 11:46:19;;;;;;;5.45;1.60;;;26.90;99.90;;;;;;5033232;28;20131;-81
2022/08/21 11:49:14;;;;;;;5.78;1.63;;;27.10;98.80;;;;;;5032701;28;20488;-81
2022/08/21 11:51:58;;;;;;;6.47;1.65;;;27.20;99.30;;;;;;5016688;28;20544;-81
2022/08/21 11:54:37;;;;;;;5.53;1.73;;;27.10;99.20;;;;;;5032517;28;20493;-81
2022/08/21 11:57:18;;;;;;;6.10;1.55;;;27.10;99.00;;;;;;5031776;28;20093;-81
2022/08/21 11:59:55;;;;;;;5.90;1.42;;;26.90;98.90;;;;;;5031992;28;20489;-81
2022/08/21 12:02:27;;;;;;;6.35;1.70;;;26.80;99.10;;;;;;5014837;28;20046;-81
2022/08/21 12:05:07;;;;;;;5.60;1.60;;;26.70;99.10;;;;;;5031663;28;20041;-81
2022/08/21 12:07:39;;;;;;;7.07;1.42;;;26.60;98.30;;;;;;5031184;28;20108;-81
2022/08/21 12:10:13;;;;;;;4.63;1.70;;;26.70;98.50;;;;;;5015243;28;20033;-81
2022/08/21 12:12:40;;;;;;;4.95;1.17;;;26.70;98.70;;;;;;5015185;28;20092;-81
2022/08/21 12:15:28;;;;;;;7.07;1.95;;;26.80;98.90;;;;;;5031828;28;20045;-81
2022/08/21 12:18:18;;;;;;;6.32;1.88;;;26.80;98.70;;;;;;5031597;28;20038;-81
2022/08/21 12:21:15;;;;;;;6.90;1.65;;;26.80;98.60;;;;;;5015303;28;20060;-81
2022/08/21 12:24:13;;;;;;;4.40;1.40;;;26.60;98.60;;;;;;5031229;28;20493;-81
2022/08/21 12:27:00;;;;;;;3.88;1.10;;;26.50;98.80;;;;;;5027189;28;20057;-82
2022/08/21 12:29:27;;;;;;;;;;;26.90;97.90;;;;;;5031357;28;20048;-81
2022/08/21 12:31:56;;;;;;;5.80;1.30;;;27.20;97.60;;;;;;5031453;28;20015;-81
2022/08/21 12:34:32;;;;;;;5.03;1.38;;;27.50;97.30;;;;;;5030937;28;20045;-82
2022/08/21 12:37:03;;;;;;;5.10;1.45;;;27.50;97.20;;;;;;5031268;28;20386;-82
2022/08/21 12:39:31;;;;;;;3.55;1.13;;;27.10;97.50;;;;;;5031125;28;20405;-81
2022/08/21 12:42:26;;;;;;;5.32;1.20;;;26.80;98.10;;;;;;5031043;28;20045;-82
2022/08/21 12:45:14;;;;;;;4.68;1.25;;;26.40;98.00;;;;;;5030886;28;20500;-81
2022/08/21 12:47:48;;;;;;;3.30;1.10;;;26.50;98.50;;;;;;5031046;28;20053;-82
2022/08/21 12:50:35;;;;;;;4.78;1.20;;;27.00;98.00;;;;;;5030478;28;20049;-82
2022/08/21 12:53:28;;;;;;;6.68;1.20;;;27.70;97.70;;;;;;5014490;28;21050;-82
2022/08/21 12:55:59;;;;;;;6.68;1.10;;;28.00;96.60;;;;;;4993259;28;1099938;-82
2022/08/21 12:58:25;;;;;;;3.70;1.30;;;28.00;96.70;;;;;;5031300;28;20053;-82
2022/08/21 13:01:17;;;;;;;4.88;1.58;;;28.10;97.40;;;;;;5031256;28;20049;-82
2022/08/21 13:03:44;;;;;;;6.20;1.30;;;28.00;96.80;;;;;;5023310;28;20060;-82
2022/08/21 13:06:16;;;;;;;3.85;0.95;;;28.00;97.10;;;;;;5031564;28;20081;-82